createdAt,value
2018-04-02T00:00:25.839Z,0.00
2018-04-02T00:01:25.722Z,0.00
2018-04-02T00:02:25.633Z,0.00
2018-04-02T00:03:25.515Z,0.00
2018-04-02T00:04:25.412Z,0.00
2018-04-02T00:05:25.297Z,0.00
2018-04-02T00:06:25.193Z,0.00
2018-04-02T00:07:25.090Z,0.00
2018-04-02T00:08:24.974Z,0.00
2018-04-02T00:09:24.870Z,0.00
2018-04-02T00:10:24.767Z,0.00
2018-04-02T00:11:24.663Z,0.00
2018-04-02T00:12:24.548Z,0.00
2018-04-02T00:13:24.445Z,0.00
2018-04-02T00:14:24.345Z,0.00
2018-04-02T00:15:24.225Z,0.00
2018-04-02T00:16:24.125Z,0.00
2018-04-02T00:17:24.021Z,0.00
2018-04-02T00:18:23.904Z,0.00
2018-04-02T00:19:23.800Z,0.00
2018-04-02T00:20:23.698Z,0.00
2018-04-02T00:21:23.593Z,0.00
2018-04-02T00:22:23.477Z,0.00
2018-04-02T00:23:23.374Z,0.00
2018-04-02T00:24:23.273Z,0.00
2018-04-02T00:25:23.157Z,0.00
2018-04-02T00:26:23.054Z,0.00
2018-04-02T00:27:22.949Z,0.00
2018-04-02T00:28:22.846Z,0.00
2018-04-02T00:29:22.729Z,0.00
2018-04-02T00:30:22.625Z,0.00
2018-04-02T00:31:22.522Z,0.00
2018-04-02T00:32:22.411Z,0.00
2018-04-02T00:33:22.303Z,0.00
2018-04-02T00:34:22.202Z,0.00
2018-04-02T00:35:22.085Z,0.00
2018-04-02T00:36:21.980Z,0.00
2018-04-02T00:37:21.877Z,0.00
2018-04-02T00:38:21.774Z,0.00
2018-04-02T00:39:21.659Z,0.00
2018-04-02T00:40:21.555Z,0.00
2018-04-02T00:41:21.453Z,0.00
2018-04-02T00:42:21.336Z,0.00
2018-04-02T00:43:21.243Z,0.00
2018-04-02T00:44:21.129Z,0.00
2018-04-02T00:45:21.014Z,0.00
2018-04-02T00:46:20.913Z,0.00
2018-04-02T00:47:21.107Z,0.00
2018-04-02T00:48:20.705Z,0.00
2018-04-02T00:49:20.588Z,0.00
2018-04-02T00:50:20.484Z,0.00
2018-04-02T00:51:20.381Z,0.00
2018-04-02T00:52:20.284Z,0.00
2018-04-02T00:53:20.163Z,0.00
2018-04-02T00:54:20.062Z,0.00
2018-04-02T00:55:19.956Z,0.00
2018-04-02T00:56:19.839Z,0.00
2018-04-02T00:57:19.736Z,0.00
2018-04-02T00:58:19.632Z,0.00
2018-04-02T00:59:19.517Z,0.00
2018-04-02T01:00:19.414Z,0.00
2018-04-02T01:01:19.311Z,0.00
2018-04-02T01:02:19.195Z,0.00
2018-04-02T01:03:19.094Z,0.00
2018-04-02T01:04:18.989Z,0.00
2018-04-02T01:05:18.895Z,0.00
2018-04-02T01:06:18.770Z,0.00
2018-04-02T01:07:18.673Z,0.00
2018-04-02T01:08:18.596Z,0.00
2018-04-02T01:09:18.446Z,0.00
2018-04-02T01:10:18.343Z,0.00
2018-04-02T01:11:18.240Z,0.00
2018-04-02T01:12:18.138Z,0.00
2018-04-02T01:13:18.022Z,0.00
2018-04-02T01:14:17.917Z,0.00
2018-04-02T01:15:17.814Z,0.00
2018-04-02T01:16:17.700Z,0.00
2018-04-02T01:17:17.607Z,0.00
2018-04-02T01:18:17.491Z,0.00
2018-04-02T01:19:17.377Z,0.00
2018-04-02T01:20:17.273Z,0.00
2018-04-02T01:21:17.169Z,0.00
2018-04-02T01:22:17.053Z,0.00
2018-04-02T01:23:16.954Z,0.00
2018-04-02T01:24:16.846Z,0.00
2018-04-02T01:25:16.730Z,0.00
2018-04-02T01:26:16.628Z,0.00
2018-04-02T01:27:16.524Z,0.00
2018-04-02T01:28:16.410Z,0.00
2018-04-02T01:29:16.306Z,0.00
2018-04-02T01:30:16.201Z,0.00
2018-04-02T01:31:16.112Z,0.00
2018-04-02T01:32:15.983Z,0.00
2018-04-02T01:33:15.881Z,0.00
2018-04-02T01:34:15.777Z,0.00
2018-04-02T01:35:15.660Z,0.00
2018-04-02T01:36:15.557Z,0.00
2018-04-02T01:37:15.453Z,0.00
2018-04-02T01:38:15.338Z,0.00
2018-04-02T01:39:15.236Z,0.00
2018-04-02T01:40:15.131Z,0.00
2018-04-02T01:41:15.016Z,0.00
2018-04-02T01:42:14.911Z,0.00
2018-04-02T01:43:14.808Z,0.00
2018-04-02T01:44:14.705Z,0.00
2018-04-02T01:45:14.591Z,0.00
2018-04-02T01:46:14.489Z,0.00
2018-04-02T01:47:14.383Z,0.00
2018-04-02T01:48:14.266Z,0.00
2018-04-02T01:49:14.164Z,0.00
2018-04-02T01:50:14.059Z,0.00
2018-04-02T01:51:13.945Z,0.00
2018-04-02T01:52:13.844Z,0.00
2018-04-02T01:53:13.738Z,0.00
2018-04-02T01:54:13.627Z,0.00
2018-04-02T01:55:13.520Z,0.00
2018-04-02T01:56:13.415Z,0.00
2018-04-02T01:57:13.312Z,0.00
2018-04-02T01:58:13.196Z,0.00
2018-04-02T01:59:13.093Z,0.00
2018-04-02T02:00:12.992Z,0.00
2018-04-02T02:01:12.875Z,0.00
2018-04-02T02:02:12.769Z,0.00
2018-04-02T02:03:12.666Z,0.00
2018-04-02T02:04:12.577Z,0.00
2018-04-02T02:05:12.449Z,0.00
2018-04-02T02:06:12.344Z,0.00
2018-04-02T02:07:12.241Z,0.00
2018-04-02T02:08:12.126Z,0.00
2018-04-02T02:09:12.035Z,0.00
2018-04-02T02:10:11.920Z,0.00
2018-04-02T02:11:11.803Z,0.00
2018-04-02T02:12:11.702Z,0.00
2018-04-02T02:13:11.597Z,0.00
2018-04-02T02:14:11.493Z,0.00
2018-04-02T02:15:11.377Z,0.00
2018-04-02T02:16:11.273Z,0.00
2018-04-02T02:17:11.170Z,0.00
2018-04-02T02:18:11.056Z,0.00
2018-04-02T02:19:10.952Z,0.00
2018-04-02T02:20:10.848Z,0.00
2018-04-02T02:21:10.733Z,0.00
2018-04-02T02:22:10.629Z,0.00
2018-04-02T02:23:10.525Z,0.00
2018-04-02T02:24:10.421Z,0.00
2018-04-02T02:25:10.312Z,0.00
2018-04-02T02:26:10.203Z,0.00
2018-04-02T02:27:10.101Z,0.00
2018-04-02T02:28:09.983Z,0.00
2018-04-02T02:29:09.894Z,0.00
2018-04-02T02:30:09.777Z,0.00
2018-04-02T02:31:09.662Z,0.00
2018-04-02T02:32:09.810Z,0.00
2018-04-02T02:33:09.455Z,0.00
2018-04-02T02:34:09.339Z,0.00
2018-04-02T02:35:09.238Z,0.00
2018-04-02T02:36:09.133Z,0.00
2018-04-02T02:37:09.032Z,0.00
2018-04-02T02:38:08.914Z,0.00
2018-04-02T02:39:08.810Z,0.00
2018-04-02T02:40:08.707Z,0.00
2018-04-02T02:41:08.590Z,0.00
2018-04-02T02:42:08.501Z,0.00
2018-04-02T02:43:08.384Z,0.00
2018-04-02T02:44:08.271Z,0.00
2018-04-02T02:45:08.166Z,0.00
2018-04-02T02:46:08.066Z,0.00
2018-04-02T02:47:07.947Z,0.00
2018-04-02T02:48:07.843Z,0.00
2018-04-02T02:49:07.738Z,0.00
2018-04-02T02:50:07.629Z,0.00
2018-04-02T02:51:07.521Z,0.00
2018-04-02T02:52:07.473Z,0.00
2018-04-02T02:53:07.302Z,0.00
2018-04-02T02:54:07.200Z,0.00
2018-04-02T02:55:07.094Z,0.00
2018-04-02T02:56:06.992Z,0.00
2018-04-02T02:57:07.176Z,0.00
2018-04-02T02:58:06.773Z,0.00
2018-04-02T02:59:06.669Z,0.00
2018-04-02T03:00:06.553Z,0.00
2018-04-02T03:01:06.448Z,0.00
2018-04-02T03:02:06.359Z,0.00
2018-04-02T03:03:06.230Z,0.00
2018-04-02T03:04:06.129Z,0.00
2018-04-02T03:05:06.013Z,0.00
2018-04-02T03:06:05.909Z,0.00
2018-04-02T03:07:05.807Z,0.00
2018-04-02T03:08:05.701Z,0.00
2018-04-02T03:09:05.587Z,0.00
2018-04-02T03:10:05.482Z,0.00
2018-04-02T03:11:05.378Z,0.00
2018-04-02T03:12:05.263Z,0.00
2018-04-02T03:13:05.159Z,0.00
2018-04-02T03:14:05.055Z,0.00
2018-04-02T03:15:04.944Z,0.00
2018-04-02T03:16:04.838Z,0.00
2018-04-02T03:17:04.722Z,0.00
2018-04-02T03:18:04.617Z,0.00
2018-04-02T03:19:04.514Z,0.00
2018-04-02T03:20:04.412Z,0.00
2018-04-02T03:21:04.298Z,0.00
2018-04-02T03:22:04.192Z,0.00
2018-04-02T03:23:04.077Z,0.00
2018-04-02T03:24:03.972Z,0.00
2018-04-02T03:25:03.881Z,0.00
2018-04-02T03:26:03.757Z,0.00
2018-04-02T03:27:03.901Z,0.00
2018-04-02T03:28:03.548Z,0.00
2018-04-02T03:29:03.430Z,0.00
2018-04-02T03:30:03.329Z,0.00
2018-04-02T03:31:03.224Z,0.00
2018-04-02T03:32:03.109Z,0.00
2018-04-02T03:33:03.006Z,0.00
2018-04-02T03:34:02.902Z,0.00
2018-04-02T03:35:02.786Z,0.00
2018-04-02T03:36:02.682Z,0.00
2018-04-02T03:37:02.579Z,0.00
2018-04-02T03:38:02.463Z,0.00
2018-04-02T03:39:02.362Z,0.00
2018-04-02T03:40:02.248Z,0.00
2018-04-02T03:41:02.141Z,0.00
2018-04-02T03:42:02.042Z,0.00
2018-04-02T03:43:01.922Z,0.00
2018-04-02T03:44:01.820Z,0.00
2018-04-02T03:45:01.715Z,0.00
2018-04-02T03:46:01.611Z,0.00
2018-04-02T03:47:01.745Z,0.00
2018-04-02T03:48:01.392Z,0.00
2018-04-02T03:49:01.278Z,0.00
2018-04-02T03:50:01.175Z,0.00
2018-04-02T03:51:01.071Z,0.00
2018-04-02T03:52:00.955Z,0.00
2018-04-02T03:53:00.851Z,0.00
2018-04-02T03:54:00.736Z,0.00
2018-04-02T03:55:00.632Z,0.00
2018-04-02T03:56:00.563Z,0.00
2018-04-02T03:57:00.414Z,0.00
2018-04-02T03:58:00.309Z,0.00
2018-04-02T03:59:00.206Z,0.00
2018-04-02T04:00:00.091Z,0.00
2018-04-02T04:00:59.991Z,0.00
2018-04-02T04:01:59.873Z,0.00
2018-04-02T04:02:59.768Z,0.00
2018-04-02T04:03:59.664Z,0.00
2018-04-02T04:04:59.549Z,0.00
2018-04-02T04:05:59.450Z,0.00
2018-04-02T04:06:59.344Z,0.00
2018-04-02T04:07:59.226Z,0.00
2018-04-02T04:08:59.125Z,4.00
2018-04-02T04:09:59.019Z,4.00
2018-04-02T04:10:58.909Z,4.00
2018-04-02T04:11:58.801Z,4.00
2018-04-02T04:12:58.696Z,4.00
2018-04-02T04:13:58.581Z,4.00
2018-04-02T04:14:58.477Z,4.00
2018-04-02T04:15:58.363Z,4.00
2018-04-02T04:16:58.259Z,8.00
2018-04-02T04:17:58.156Z,8.00
2018-04-02T04:18:58.039Z,12.00
2018-04-02T04:19:57.936Z,12.00
2018-04-02T04:20:57.887Z,16.00
2018-04-02T04:21:57.718Z,20.00
2018-04-02T04:22:57.614Z,20.00
2018-04-02T04:23:57.499Z,24.00
2018-04-02T04:24:57.394Z,28.00
2018-04-02T04:25:57.291Z,32.00
2018-04-02T04:26:57.176Z,40.00
2018-04-02T04:27:57.073Z,44.00
2018-04-02T04:28:56.968Z,52.00
2018-04-02T04:29:56.853Z,60.00
2018-04-02T04:30:56.751Z,68.00
2018-04-02T04:31:56.659Z,80.00
2018-04-02T04:32:56.531Z,88.00
2018-04-02T04:33:56.427Z,104.00
2018-04-02T04:34:56.311Z,116.00
2018-04-02T04:35:56.215Z,132.00
2018-04-02T04:36:56.105Z,144.00
2018-04-02T04:37:55.993Z,164.00
2018-04-02T04:38:55.886Z,176.00
2018-04-02T04:39:55.783Z,200.00
2018-04-02T04:40:55.667Z,212.00
2018-04-02T04:41:55.563Z,232.00
2018-04-02T04:42:55.448Z,256.00
2018-04-02T04:43:55.345Z,276.00
2018-04-02T04:44:55.241Z,304.00
2018-04-02T04:45:55.124Z,324.00
2018-04-02T04:46:55.022Z,344.00
2018-04-02T04:47:54.919Z,380.00
2018-04-02T04:48:54.803Z,396.00
2018-04-02T04:49:54.700Z,444.00
2018-04-02T04:50:54.596Z,464.00
2018-04-02T04:51:54.479Z,488.00
2018-04-02T04:52:54.376Z,520.00
2018-04-02T04:53:54.263Z,548.00
2018-04-02T04:54:54.158Z,592.00
2018-04-02T04:55:54.054Z,628.00
2018-04-02T04:56:53.938Z,656.00
2018-04-02T04:57:53.835Z,688.00
2018-04-02T04:58:53.731Z,728.00
2018-04-02T04:59:53.617Z,760.00
2018-04-02T05:00:53.512Z,816.00
2018-04-02T05:01:53.398Z,872.00
2018-04-02T05:02:53.291Z,920.00
2018-04-02T05:03:53.187Z,960.00
2018-04-02T05:04:53.076Z,976.00
2018-04-02T05:05:52.978Z,1048.00
2018-04-02T05:06:52.867Z,1060.00
2018-04-02T05:07:52.751Z,1112.00
2018-04-02T05:08:52.648Z,1152.00
2018-04-02T05:09:52.545Z,1232.00
2018-04-02T05:10:52.433Z,1264.00
2018-04-02T05:11:52.327Z,1364.00
2018-04-02T05:12:52.225Z,1352.00
2018-04-02T05:13:52.108Z,1440.00
2018-04-02T05:14:52.004Z,1420.00
2018-04-02T05:15:51.900Z,1556.00
2018-04-02T05:16:51.785Z,1552.00
2018-04-02T05:17:51.685Z,1492.00
2018-04-02T05:18:51.579Z,1700.00
2018-04-02T05:19:51.461Z,1616.00
2018-04-02T05:20:51.390Z,1652.00
2018-04-02T05:21:51.255Z,1684.00
2018-04-02T05:22:51.176Z,1764.00
2018-04-02T05:23:51.038Z,1636.00
2018-04-02T05:24:50.933Z,1724.00
2018-04-02T05:25:50.817Z,1976.00
2018-04-02T05:26:50.713Z,1840.00
2018-04-02T05:27:50.610Z,2088.00
2018-04-02T05:28:50.495Z,2176.00
2018-04-02T05:29:50.392Z,2012.00
2018-04-02T05:30:50.288Z,2172.00
2018-04-02T05:31:50.173Z,2036.00
2018-04-02T05:32:50.082Z,2724.00
2018-04-02T05:33:49.965Z,2308.00
2018-04-02T05:34:49.862Z,2292.00
2018-04-02T05:35:49.746Z,2196.00
2018-04-02T05:36:49.643Z,2320.00
2018-04-02T05:37:49.540Z,2752.00
2018-04-02T05:38:49.424Z,2864.00
2018-04-02T05:39:49.320Z,2148.00
2018-04-02T05:40:49.217Z,2720.00
2018-04-02T05:41:49.106Z,2644.00
2018-04-02T05:42:49.007Z,3176.00
2018-04-02T05:43:48.895Z,2920.00
2018-04-02T05:44:48.780Z,2640.00
2018-04-02T05:45:48.688Z,2860.00
2018-04-02T05:46:48.571Z,3020.00
2018-04-02T05:47:48.468Z,2768.00
2018-04-02T05:48:48.354Z,3172.00
2018-04-02T05:49:48.255Z,2800.00
2018-04-02T05:50:48.147Z,2896.00
2018-04-02T05:51:48.032Z,3164.00
2018-04-02T05:52:47.927Z,3260.00
2018-04-02T05:53:47.824Z,3180.00
2018-04-02T05:54:47.720Z,4196.00
2018-04-02T05:55:47.605Z,4424.00
2018-04-02T05:56:47.502Z,4408.00
2018-04-02T05:57:47.399Z,3172.00
2018-04-02T05:58:47.296Z,3996.00
2018-04-02T05:59:47.217Z,4636.00
2018-04-02T06:00:47.075Z,4056.00
2018-04-02T06:01:46.972Z,5252.00
2018-04-02T06:02:46.869Z,3644.00
2018-04-02T06:03:46.754Z,4864.00
2018-04-02T06:04:46.651Z,4052.00
2018-04-02T06:05:46.547Z,3900.00
2018-04-02T06:06:46.432Z,3688.00
2018-04-02T06:07:46.328Z,4316.00
2018-04-02T06:08:46.224Z,3628.00
2018-04-02T06:09:46.126Z,3844.00
2018-04-02T06:10:46.006Z,4932.00
2018-04-02T06:11:45.902Z,6116.00
2018-04-02T06:12:45.799Z,4912.00
2018-04-02T06:13:45.696Z,5212.00
2018-04-02T06:14:45.585Z,3844.00
2018-04-02T06:15:45.479Z,5644.00
2018-04-02T06:16:45.375Z,4612.00
2018-04-02T06:17:45.268Z,5816.00
2018-04-02T06:18:45.154Z,5104.00
2018-04-02T06:19:45.051Z,3896.00
2018-04-02T06:20:44.948Z,7456.00
2018-04-02T06:21:44.848Z,5972.00
2018-04-02T06:22:44.729Z,6492.00
2018-04-02T06:23:44.624Z,5108.00
2018-04-02T06:24:44.522Z,6692.00
2018-04-02T06:25:44.417Z,5576.00
2018-04-02T06:26:44.314Z,5820.00
2018-04-02T06:27:44.199Z,6364.00
2018-04-02T06:28:44.096Z,5892.00
2018-04-02T06:29:43.993Z,7988.00
2018-04-02T06:30:43.895Z,6768.00
2018-04-02T06:31:43.774Z,5952.00
2018-04-02T06:32:43.675Z,6332.00
2018-04-02T06:33:43.580Z,7668.00
2018-04-02T06:34:43.462Z,7012.00
2018-04-02T06:35:43.359Z,7448.00
2018-04-02T06:36:43.244Z,6080.00
2018-04-02T06:37:43.140Z,7396.00
2018-04-02T06:38:43.037Z,6884.00
2018-04-02T06:39:42.934Z,6744.00
2018-04-02T06:40:42.831Z,8260.00
2018-04-02T06:41:42.715Z,7796.00
2018-04-02T06:42:42.612Z,8240.00
2018-04-02T06:43:42.508Z,7792.00
2018-04-02T06:44:42.404Z,7128.00
2018-04-02T06:45:42.305Z,8196.00
2018-04-02T06:46:42.198Z,5940.00
2018-04-02T06:47:42.084Z,7440.00
2018-04-02T06:48:41.979Z,8244.00
2018-04-02T06:49:41.876Z,8900.00
2018-04-02T06:50:41.776Z,9412.00
2018-04-02T06:51:41.670Z,8544.00
2018-04-02T06:52:41.555Z,7964.00
2018-04-02T06:53:41.450Z,7924.00
2018-04-02T06:54:41.346Z,8040.00
2018-04-02T06:55:41.243Z,10244.00
2018-04-02T06:56:41.139Z,10148.00
2018-04-02T06:57:41.036Z,8636.00
2018-04-02T06:58:40.933Z,10180.00
2018-04-02T06:59:40.818Z,9976.00
2018-04-02T07:00:40.715Z,7872.00
2018-04-02T07:01:40.612Z,7024.00
2018-04-02T07:02:40.510Z,7892.00
2018-04-02T07:03:40.404Z,10372.00
2018-04-02T07:04:40.301Z,8732.00
2018-04-02T07:05:40.198Z,6364.00
2018-04-02T07:06:40.139Z,7800.00
2018-04-02T07:07:39.980Z,11264.00
2018-04-02T07:08:39.875Z,13100.00
2018-04-02T07:09:39.771Z,14144.00
2018-04-02T07:10:39.670Z,12168.00
2018-04-02T07:11:39.582Z,9916.00
2018-04-02T07:12:39.461Z,8688.00
2018-04-02T07:13:39.358Z,9576.00
2018-04-02T07:14:39.255Z,10508.00
2018-04-02T07:15:39.151Z,7756.00
2018-04-02T07:16:39.048Z,7144.00
2018-04-02T07:17:38.958Z,7720.00
2018-04-02T07:18:38.844Z,10572.00
2018-04-02T07:19:38.738Z,12220.00
2018-04-02T07:20:38.635Z,10988.00
2018-04-02T07:21:38.534Z,11728.00
2018-04-02T07:22:38.428Z,9852.00
2018-04-02T07:23:38.325Z,8332.00
2018-04-02T07:24:38.225Z,10112.00
2018-04-02T07:25:38.118Z,7888.00
2018-04-02T07:26:38.015Z,7564.00
2018-04-02T07:27:37.912Z,8104.00
2018-04-02T07:28:37.809Z,6844.00
2018-04-02T07:29:37.706Z,7828.00
2018-04-02T07:30:37.591Z,10348.00
2018-04-02T07:31:37.738Z,9504.00
2018-04-02T07:32:37.384Z,7220.00
2018-04-02T07:33:37.279Z,7632.00
2018-04-02T07:34:37.178Z,7564.00
2018-04-02T07:35:37.073Z,7240.00
2018-04-02T07:36:36.970Z,7100.00
2018-04-02T07:37:36.868Z,6960.00
2018-04-02T07:38:36.764Z,5908.00
2018-04-02T07:39:36.660Z,6072.00
2018-04-02T07:40:36.558Z,6336.00
2018-04-02T07:41:36.454Z,6320.00
2018-04-02T07:42:36.353Z,6272.00
2018-04-02T07:43:36.248Z,6388.00
2018-04-02T07:44:36.143Z,6828.00
2018-04-02T07:45:36.029Z,8000.00
2018-04-02T07:46:35.925Z,6872.00
2018-04-02T07:47:35.821Z,6728.00
2018-04-02T07:48:35.717Z,6656.00
2018-04-02T07:49:35.614Z,6080.00
2018-04-02T07:50:35.543Z,6352.00
2018-04-02T07:51:35.421Z,6548.00
2018-04-02T07:52:35.303Z,7024.00
2018-04-02T07:53:35.200Z,7456.00
2018-04-02T07:54:35.098Z,8296.00
2018-04-02T07:55:34.994Z,9584.00
2018-04-02T07:56:34.879Z,8256.00
2018-04-02T07:57:34.776Z,7932.00
2018-04-02T07:58:34.672Z,8036.00
2018-04-02T07:59:34.569Z,7828.00
2018-04-02T08:00:34.465Z,7552.00
2018-04-02T08:01:34.363Z,7344.00
2018-04-02T08:02:34.261Z,7388.00
2018-04-02T08:03:34.157Z,6952.00
2018-04-02T08:04:34.055Z,6892.00
2018-04-02T08:05:33.948Z,7036.00
2018-04-02T08:06:33.835Z,7052.00
2018-04-02T08:07:33.730Z,7352.00
2018-04-02T08:08:33.636Z,7980.00
2018-04-02T08:09:33.528Z,7960.00
2018-04-02T08:10:33.432Z,7772.00
2018-04-02T08:11:33.316Z,8076.00
2018-04-02T08:12:33.215Z,8440.00
2018-04-02T08:13:33.113Z,7220.00
2018-04-02T08:14:33.006Z,7432.00
2018-04-02T08:15:32.903Z,7512.00
2018-04-02T08:16:32.804Z,7384.00
2018-04-02T08:17:32.686Z,8144.00
2018-04-02T08:18:32.582Z,8924.00
2018-04-02T08:19:32.477Z,8112.00
2018-04-02T08:20:32.375Z,7888.00
2018-04-02T08:21:32.271Z,8200.00
2018-04-02T08:22:32.168Z,10972.00
2018-04-02T08:23:32.067Z,10412.00
2018-04-02T08:24:31.965Z,10376.00
2018-04-02T08:25:31.864Z,11452.00
2018-04-02T08:26:31.755Z,9876.00
2018-04-02T08:27:31.652Z,9012.00
2018-04-02T08:28:31.547Z,10540.00
2018-04-02T08:29:31.445Z,9104.00
2018-04-02T08:30:31.341Z,9712.00
2018-04-02T08:31:31.227Z,10420.00
2018-04-02T08:32:31.149Z,10536.00
2018-04-02T08:33:31.019Z,10968.00
2018-04-02T08:34:30.915Z,10312.00
2018-04-02T08:35:30.811Z,10228.00
2018-04-02T08:36:30.736Z,11068.00
2018-04-02T08:37:30.604Z,8724.00
2018-04-02T08:38:30.501Z,7496.00
2018-04-02T08:39:30.403Z,7324.00
2018-04-02T08:40:30.296Z,7188.00
2018-04-02T08:41:30.192Z,7252.00
2018-04-02T08:42:30.088Z,7236.00
2018-04-02T08:43:29.984Z,7148.00
2018-04-02T08:44:29.881Z,7004.00
2018-04-02T08:45:29.778Z,7180.00
2018-04-02T08:46:29.675Z,7516.00
2018-04-02T08:47:29.585Z,7636.00
2018-04-02T08:48:29.473Z,7928.00
2018-04-02T08:49:29.364Z,8412.00
2018-04-02T08:50:29.261Z,7892.00
2018-04-02T08:51:29.158Z,8060.00
2018-04-02T08:52:29.055Z,7836.00
2018-04-02T08:53:28.952Z,7652.00
2018-04-02T08:54:28.848Z,8056.00
2018-04-02T08:55:28.744Z,8528.00
2018-04-02T08:56:28.643Z,9688.00
2018-04-02T08:57:28.539Z,14824.00
2018-04-02T08:58:28.435Z,13472.00
2018-04-02T08:59:28.332Z,13848.00
2018-04-02T09:00:28.228Z,11196.00
2018-04-02T09:01:28.142Z,10152.00
2018-04-02T09:02:28.022Z,13292.00
2018-04-02T09:03:27.917Z,13172.00
2018-04-02T09:04:27.816Z,9196.00
2018-04-02T09:05:27.712Z,8436.00
2018-04-02T09:06:27.608Z,8328.00
2018-04-02T09:07:27.508Z,8348.00
2018-04-02T09:08:27.402Z,8372.00
2018-04-02T09:09:27.298Z,8304.00
2018-04-02T09:10:27.197Z,8676.00
2018-04-02T09:11:27.093Z,8548.00
2018-04-02T09:12:26.989Z,8436.00
2018-04-02T09:13:26.884Z,8820.00
2018-04-02T09:14:26.782Z,8844.00
2018-04-02T09:15:26.678Z,8712.00
2018-04-02T09:16:26.575Z,8524.00
2018-04-02T09:17:26.474Z,8376.00
2018-04-02T09:18:26.369Z,8372.00
2018-04-02T09:19:26.265Z,8932.00
2018-04-02T09:20:26.163Z,8476.00
2018-04-02T09:21:26.059Z,7856.00
2018-04-02T09:22:25.957Z,7608.00
2018-04-02T09:23:25.859Z,7436.00
2018-04-02T09:24:25.748Z,7152.00
2018-04-02T09:25:25.739Z,7016.00
2018-04-02T09:26:25.542Z,7076.00
2018-04-02T09:27:25.441Z,7168.00
2018-04-02T09:28:25.335Z,7208.00
2018-04-02T09:29:25.232Z,7156.00
2018-04-02T09:30:25.128Z,6928.00
2018-04-02T09:31:25.026Z,6860.00
2018-04-02T09:32:24.922Z,6812.00
2018-04-02T09:33:24.818Z,6956.00
2018-04-02T09:34:24.715Z,7100.00
2018-04-02T09:35:24.625Z,7080.00
2018-04-02T09:36:24.508Z,7040.00
2018-04-02T09:37:24.406Z,7008.00
2018-04-02T09:38:24.305Z,6936.00
2018-04-02T09:39:24.198Z,6848.00
2018-04-02T09:40:24.096Z,6700.00
2018-04-02T09:41:23.992Z,6488.00
2018-04-02T09:42:23.888Z,6412.00
2018-04-02T09:43:23.785Z,6572.00
2018-04-02T09:44:23.684Z,6600.00
2018-04-02T09:45:23.578Z,6676.00
2018-04-02T09:46:23.479Z,6652.00
2018-04-02T09:47:23.372Z,6704.00
2018-04-02T09:48:23.269Z,6816.00
2018-04-02T09:49:23.166Z,6876.00
2018-04-02T09:50:23.062Z,7032.00
2018-04-02T09:51:22.959Z,7196.00
2018-04-02T09:52:22.856Z,7268.00
2018-04-02T09:53:22.752Z,7228.00
2018-04-02T09:54:22.648Z,7232.00
2018-04-02T09:55:22.545Z,7132.00
2018-04-02T09:56:22.443Z,7316.00
2018-04-02T09:57:22.355Z,7392.00
2018-04-02T09:58:22.235Z,7404.00
2018-04-02T09:59:22.193Z,7680.00
2018-04-02T10:00:22.029Z,7728.00
2018-04-02T10:01:22.200Z,7684.00
2018-04-02T10:02:21.822Z,7376.00
2018-04-02T10:03:21.719Z,7080.00
2018-04-02T10:04:21.617Z,6976.00
2018-04-02T10:05:21.514Z,6876.00
2018-04-02T10:06:22.033Z,6888.00
2018-04-02T10:07:21.307Z,6888.00
2018-04-02T10:08:21.203Z,7052.00
2018-04-02T10:09:21.100Z,7152.00
2018-04-02T10:10:21.068Z,7300.00
2018-04-02T10:11:20.905Z,7600.00
2018-04-02T10:12:20.790Z,7504.00
2018-04-02T10:13:20.700Z,7456.00
2018-04-02T10:14:20.596Z,7440.00
2018-04-02T10:15:20.492Z,7636.00
2018-04-02T10:16:20.399Z,7688.00
2018-04-02T10:17:20.286Z,7608.00
2018-04-02T10:18:20.182Z,7964.00
2018-04-02T10:19:20.080Z,10220.00
2018-04-02T10:20:19.976Z,12560.00
2018-04-02T10:21:19.872Z,10632.00
2018-04-02T10:22:19.770Z,8260.00
2018-04-02T10:23:19.665Z,7312.00
2018-04-02T10:24:19.570Z,7172.00
2018-04-02T10:25:19.459Z,7492.00
2018-04-02T10:26:19.400Z,7648.00
2018-04-02T10:27:19.253Z,7556.00
2018-04-02T10:28:19.149Z,7364.00
2018-04-02T10:29:19.046Z,7444.00
2018-04-02T10:30:18.943Z,7624.00
2018-04-02T10:31:19.090Z,7576.00
2018-04-02T10:32:18.738Z,7432.00
2018-04-02T10:33:18.669Z,7368.00
2018-04-02T10:34:18.529Z,7368.00
2018-04-02T10:35:18.426Z,7096.00
2018-04-02T10:36:18.323Z,6760.00
2018-04-02T10:37:18.276Z,6620.00
2018-04-02T10:38:18.116Z,6628.00
2018-04-02T10:39:18.024Z,6800.00
2018-04-02T10:40:17.909Z,7060.00
2018-04-02T10:41:18.068Z,7524.00
2018-04-02T10:42:17.715Z,7604.00
2018-04-02T10:43:17.651Z,7324.00
2018-04-02T10:44:17.508Z,7200.00
2018-04-02T10:45:17.405Z,7548.00
2018-04-02T10:46:17.314Z,9124.00
2018-04-02T10:47:17.197Z,9708.00
2018-04-02T10:48:17.094Z,9184.00
2018-04-02T10:49:16.991Z,7840.00
2018-04-02T10:50:16.888Z,7360.00
2018-04-02T10:51:16.784Z,7396.00
2018-04-02T10:52:16.681Z,8928.00
2018-04-02T10:53:16.578Z,9644.00
2018-04-02T10:54:16.474Z,7900.00
2018-04-02T10:55:16.371Z,7104.00
2018-04-02T10:56:16.273Z,7452.00
2018-04-02T10:57:16.166Z,8792.00
2018-04-02T10:58:16.074Z,9036.00
2018-04-02T10:59:15.971Z,7380.00
2018-04-02T11:00:15.867Z,6796.00
2018-04-02T11:01:15.765Z,8588.00
2018-04-02T11:02:15.662Z,10796.00
2018-04-02T11:03:15.558Z,8036.00
2018-04-02T11:04:15.453Z,6596.00
2018-04-02T11:05:15.352Z,6732.00
2018-04-02T11:06:15.298Z,6560.00
2018-04-02T11:07:15.145Z,6500.00
2018-04-02T11:08:15.042Z,6388.00
2018-04-02T11:09:14.938Z,6376.00
2018-04-02T11:10:14.846Z,6164.00
2018-04-02T11:11:14.744Z,6172.00
2018-04-02T11:12:14.641Z,6372.00
2018-04-02T11:13:14.536Z,6832.00
2018-04-02T11:14:14.432Z,6272.00
2018-04-02T11:15:14.329Z,6096.00
2018-04-02T11:16:14.240Z,6296.00
2018-04-02T11:17:14.124Z,6152.00
2018-04-02T11:18:14.020Z,5932.00
2018-04-02T11:19:13.916Z,6060.00
2018-04-02T11:20:13.813Z,6200.00
2018-04-02T11:21:13.961Z,6244.00
2018-04-02T11:22:13.619Z,6192.00
2018-04-02T11:23:13.518Z,6140.00
2018-04-02T11:24:13.413Z,6832.00
2018-04-02T11:25:13.309Z,7500.00
2018-04-02T11:26:13.206Z,9632.00
2018-04-02T11:27:13.102Z,11336.00
2018-04-02T11:28:13.000Z,10664.00
2018-04-02T11:29:12.896Z,8444.00
2018-04-02T11:30:12.793Z,8388.00
2018-04-02T11:31:12.690Z,10460.00
2018-04-02T11:32:12.598Z,9448.00
2018-04-02T11:33:12.495Z,7132.00
2018-04-02T11:34:12.392Z,6488.00
2018-04-02T11:35:12.288Z,6212.00
2018-04-02T11:36:12.184Z,7480.00
2018-04-02T11:37:12.095Z,6652.00
2018-04-02T11:38:11.978Z,5856.00
2018-04-02T11:39:11.875Z,6664.00
2018-04-02T11:40:11.784Z,9040.00
2018-04-02T11:41:11.670Z,7612.00
2018-04-02T11:42:11.579Z,7428.00
2018-04-02T11:43:11.475Z,7228.00
2018-04-02T11:44:11.371Z,6532.00
2018-04-02T11:45:11.268Z,7216.00
2018-04-02T11:46:11.164Z,7408.00
2018-04-02T11:47:11.061Z,6512.00
2018-04-02T11:48:11.006Z,7108.00
2018-04-02T11:49:10.855Z,7472.00
2018-04-02T11:50:10.764Z,7980.00
2018-04-02T11:51:10.910Z,9756.00
2018-04-02T11:52:10.557Z,10204.00
2018-04-02T11:53:10.459Z,9072.00
2018-04-02T11:54:10.351Z,11048.00
2018-04-02T11:55:10.247Z,9784.00
2018-04-02T11:56:10.143Z,7152.00
2018-04-02T11:57:10.053Z,7564.00
2018-04-02T11:58:09.939Z,8900.00
2018-04-02T11:59:09.847Z,7180.00
2018-04-02T12:00:09.743Z,6384.00
2018-04-02T12:01:09.891Z,6276.00
2018-04-02T12:02:09.540Z,6244.00
2018-04-02T12:03:09.434Z,6324.00
2018-04-02T12:04:09.331Z,6380.00
2018-04-02T12:05:09.227Z,6484.00
2018-04-02T12:06:09.138Z,6504.00
2018-04-02T12:07:09.032Z,6624.00
2018-04-02T12:08:08.928Z,6776.00
2018-04-02T12:09:08.825Z,7120.00
2018-04-02T12:10:08.722Z,7252.00
2018-04-02T12:11:08.619Z,7728.00
2018-04-02T12:12:08.515Z,7680.00
2018-04-02T12:13:08.414Z,7160.00
2018-04-02T12:14:08.322Z,7420.00
2018-04-02T12:15:08.219Z,7644.00
2018-04-02T12:16:08.115Z,7056.00
2018-04-02T12:17:08.012Z,6384.00
2018-04-02T12:18:07.908Z,6196.00
2018-04-02T12:19:07.806Z,6040.00
2018-04-02T12:20:07.702Z,6068.00
2018-04-02T12:21:07.653Z,6320.00
2018-04-02T12:22:07.524Z,6608.00
2018-04-02T12:23:07.405Z,7372.00
2018-04-02T12:24:07.302Z,7880.00
2018-04-02T12:25:07.204Z,7820.00
2018-04-02T12:26:07.119Z,7960.00
2018-04-02T12:27:06.991Z,8104.00
2018-04-02T12:28:06.890Z,8388.00